sensor_id;sensor_type;location;lat;lon;timestamp;pressure;altitude;pressure_sealevel;temperature;humidity
25759;BME280;13604;52.496;13.456;2023-08-30T00:00:05;100325.13;;;13.70;100.00
25759;BME280;13604;52.496;13.456;2023-08-30T00:02:31;100323.44;;;13.72;100.00
25759;BME280;13604;52.496;13.456;2023-08-30T00:04:59;100304.91;;;13.65;100.00
25759;BME280;13604;52.496;13.456;2023-08-30T00:07:26;100322.47;;;13.69;100.00
25759;BME280;13604;52.496;13.456;2023-08-30T00:09:51;100321.66;;;13.71;100.00
25759;BME280;13604;52.496;13.456;2023-08-30T00:12:16;100333.81;;;13.69;100.00
25759;BME280;13604;52.496;13.456;2023-08-30T00:14:42;100324.09;;;13.64;100.00
25759;BME280;13604;52.496;13.456;2023-08-30T00:17:07;100327.66;;;13.67;100.00
25759;BME280;13604;52.496;13.456;2023-08-30T00:19:32;100335.59;;;13.70;100.00
25759;BME280;13604;52.496;13.456;2023-08-30T00:21:58;100319.13;;;13.74;100.00
25759;BME280;13604;52.496;13.456;2023-08-30T00:24:23;100312.84;;;13.68;100.00
25759;BME280;13604;52.496;13.456;2023-08-30T00:26:48;100319.94;;;13.72;100.00
25759;BME280;13604;52.496;13.456;2023-08-30T00:29:13;100325.19;;;13.72;100.00
25759;BME280;13604;52.496;13.456;2023-08-30T00:31:39;100316.28;;;13.65;100.00
25759;BME280;13604;52.496;13.456;2023-08-30T00:34:04;100321.66;;;13.71;100.00
25759;BME280;13604;52.496;13.456;2023-08-30T00:36:29;100312.81;;;13.66;100.00
25759;BME280;13604;52.496;13.456;2023-08-30T00:38:55;100312.69;;;13.61;100.00
25759;BME280;13604;52.496;13.456;2023-08-30T00:41:20;100319.81;;;13.67;100.00
25759;BME280;13604;52.496;13.456;2023-08-30T00:43:46;100311.88;;;13.64;100.00
25759;BME280;13604;52.496;13.456;2023-08-30T00:46:11;100313.69;;;13.67;100.00
25759;BME280;13604;52.496;13.456;2023-08-30T00:48:37;100306.56;;;13.61;100.00
25759;BME280;13604;52.496;13.456;2023-08-30T00:51:03;100301.25;;;13.58;100.00
25759;BME280;13604;52.496;13.456;2023-08-30T00:53:28;100298.41;;;13.49;100.00
25759;BME280;13604;52.496;13.456;2023-08-30T00:55:54;100295.03;;;13.53;100.00
25759;BME280;13604;52.496;13.456;2023-08-30T00:58:19;100286.03;;;13.43;100.00
25759;BME280;13604;52.496;13.456;2023-08-30T01:00:44;100307.84;;;13.43;100.00
25759;BME280;13604;52.496;13.456;2023-08-30T01:03:10;100315.66;;;13.42;100.00
25759;BME280;13604;52.496;13.456;2023-08-30T01:05:35;100305.97;;;13.38;100.00
25759;BME280;13604;52.496;13.456;2023-08-30T01:08:00;100306.88;;;13.40;100.00
25759;BME280;13604;52.496;13.456;2023-08-30T01:10:53;100315.69;;;13.43;100.00
25759;BME280;13604;52.496;13.456;2023-08-30T01:13:20;100323.50;;;13.42;100.00
25759;BME280;13604;52.496;13.456;2023-08-30T01:15:51;100322.66;;;13.43;100.00
25759;BME280;13604;52.496;13.456;2023-08-30T01:18:29;100326.19;;;13.45;100.00
25759;BME280;13604;52.496;13.456;2023-08-30T01:20:57;100309.50;;;13.40;100.00
25759;BME280;13604;52.496;13.456;2023-08-30T01:23:40;100312.94;;;13.37;100.00
25759;BME280;13604;52.496;13.456;2023-08-30T01:26:11;100313.78;;;13.36;100.00
25759;BME280;13604;52.496;13.456;2023-08-30T01:28:38;100320.03;;;13.43;100.00
25759;BME280;13604;52.496;13.456;2023-08-30T01:31:06;100325.28;;;13.43;100.00
25759;BME280;13604;52.496;13.456;2023-08-30T01:33:32;100334.81;;;13.41;100.00
25759;BME280;13604;52.496;13.456;2023-08-30T01:35:58;100330.44;;;13.40;100.00
25759;BME280;13604;52.496;13.456;2023-08-30T01:38:26;100325.09;;;13.37;100.00
25759;BME280;13604;52.496;13.456;2023-08-30T01:40:53;100323.97;;;13.29;100.00
25759;BME280;13604;52.496;13.456;2023-08-30T01:43:20;100318.69;;;13.27;100.00
25759;BME280;13604;52.496;13.456;2023-08-30T01:45:46;100325.09;;;13.37;100.00
25759;BME280;13604;52.496;13.456;2023-08-30T01:48:14;100331.16;;;13.34;100.00
25759;BME280;13604;52.496;13.456;2023-08-30T01:50:41;100329.16;;;13.27;100.00
25759;BME280;13604;52.496;13.456;2023-08-30T01:53:08;100332.69;;;13.28;100.00
25759;BME280;13604;52.496;13.456;2023-08-30T01:55:35;100339.00;;;13.34;100.00
25759;BME280;13604;52.496;13.456;2023-08-30T01:58:01;100331.78;;;13.27;100.00
25759;BME280;13604;52.496;13.456;2023-08-30T02:00:26;100348.59;;;13.35;100.00
25759;BME280;13604;52.496;13.456;2023-08-30T02:02:51;100325.63;;;13.25;100.00
25759;BME280;13604;52.496;13.456;2023-08-30T02:05:17;100339.03;;;13.36;100.00
25759;BME280;13604;52.496;13.456;2023-08-30T02:10:16;100334.44;;;13.29;100.00
25759;BME280;13604;52.496;13.456;2023-08-30T02:12:46;100323.84;;;13.22;100.00
25759;BME280;13604;52.496;13.456;2023-08-30T02:15:13;100336.91;;;13.22;100.00
25759;BME280;13604;52.496;13.456;2023-08-30T02:17:38;100346.41;;;13.20;100.00
25759;BME280;13604;52.496;13.456;2023-08-30T02:20:05;100340.16;;;13.15;100.00
25759;BME280;13604;52.496;13.456;2023-08-30T02:22:32;100337.56;;;13.15;100.00
25759;BME280;13604;52.496;13.456;2023-08-30T02:24:58;100335.75;;;13.13;100.00
25759;BME280;13604;52.496;13.456;2023-08-30T02:27:23;100324.16;;;13.03;100.00
25759;BME280;13604;52.496;13.456;2023-08-30T02:29:49;100333.88;;;13.08;100.00
25759;BME280;13604;52.496;13.456;2023-08-30T02:32:14;100327.50;;;12.99;100.00
25759;BME280;13604;52.496;13.456;2023-08-30T02:34:42;100333.69;;;13.02;100.00
25759;BME280;13604;52.496;13.456;2023-08-30T02:37:07;100337.97;;;12.99;100.00
25759;BME280;13604;52.496;13.456;2023-08-30T02:39:32;100332.00;;;13.03;100.00
25759;BME280;13604;52.496;13.456;2023-08-30T02:41:58;100320.38;;;12.93;100.00
25759;BME280;13604;52.496;13.456;2023-08-30T02:44:23;100325.53;;;12.90;100.00
25759;BME280;13604;52.496;13.456;2023-08-30T02:46:48;100337.03;;;12.97;100.00
25759;BME280;13604;52.496;13.456;2023-08-30T02:49:13;100328.41;;;12.99;100.00
25759;BME280;13604;52.496;13.456;2023-08-30T02:51:39;100325.75;;;12.98;100.00
25759;BME280;13604;52.496;13.456;2023-08-30T02:54:04;100338.88;;;12.99;100.00
25759;BME280;13604;52.496;13.456;2023-08-30T02:56:31;100321.44;;;13.00;100.00
25759;BME280;13604;52.496;13.456;2023-08-30T02:58:57;100314.34;;;12.96;100.00
25759;BME280;13604;52.496;13.456;2023-08-30T03:01:22;100300.75;;;12.77;100.00
25759;BME280;13604;52.496;13.456;2023-08-30T03:03:47;100304.28;;;12.79;100.00
25759;BME280;13604;52.496;13.456;2023-08-30T03:06:13;100290.88;;;12.67;100.00
25759;BME280;13604;52.496;13.456;2023-08-30T03:08:39;100281.06;;;12.58;100.00
25759;BME280;13604;52.496;13.456;2023-08-30T03:11:12;100284.41;;;12.54;100.00
25759;BME280;13604;52.496;13.456;2023-08-30T03:13:37;100294.81;;;12.52;100.00
25759;BME280;13604;52.496;13.456;2023-08-30T03:16:13;100285.13;;;12.48;100.00
25759;BME280;13604;52.496;13.456;2023-08-30T03:18:39;100295.47;;;12.45;100.00
25759;BME280;13604;52.496;13.456;2023-08-30T03:21:05;100293.00;;;12.50;100.00
25759;BME280;13604;52.496;13.456;2023-08-30T03:23:31;100277.09;;;12.42;100.00
25759;BME280;13604;52.496;13.456;2023-08-30T03:25:57;100276.63;;;12.27;100.00
25759;BME280;13604;52.496;13.456;2023-08-30T03:28:23;100291.66;;;12.34;100.00
25759;BME280;13604;52.496;13.456;2023-08-30T03:30:48;100286.44;;;12.34;100.00
25759;BME280;13604;52.496;13.456;2023-08-30T03:33:13;100284.75;;;12.36;100.00
25759;BME280;13604;52.496;13.456;2023-08-30T03:35:39;100303.78;;;12.32;100.00
25759;BME280;13604;52.496;13.456;2023-08-30T03:38:04;100288.75;;;12.25;100.00
25759;BME280;13604;52.496;13.456;2023-08-30T03:40:30;100305.53;;;12.33;100.00
25759;BME280;13604;52.496;13.456;2023-08-30T03:42:55;100307.22;;;12.31;100.00
25759;BME280;13604;52.496;13.456;2023-08-30T03:45:21;100292.28;;;12.27;100.00
25759;BME280;13604;52.496;13.456;2023-08-30T03:47:46;100312.69;;;12.39;100.00
25759;BME280;13604;52.496;13.456;2023-08-30T03:50:11;100319.75;;;12.43;100.00
25759;BME280;13604;52.496;13.456;2023-08-30T03:52:37;100316.06;;;12.36;100.00
25759;BME280;13604;52.496;13.456;2023-08-30T03:55:02;100310.06;;;12.39;100.00
25759;BME280;13604;52.496;13.456;2023-08-30T03:57:28;100312.91;;;12.46;100.00
25759;BME280;13604;52.496;13.456;2023-08-30T03:59:53;100319.66;;;12.40;100.00
25759;BME280;13604;52.496;13.456;2023-08-30T04:02:18;100316.28;;;12.42;100.00
25759;BME280;13604;52.496;13.456;2023-08-30T04:04:46;100319.16;;;12.51;100.00
25759;BME280;13604;52.496;13.456;2023-08-30T04:07:11;100313.25;;;12.57;100.00
25759;BME280;13604;52.496;13.456;2023-08-30T04:09:37;100310.69;;;12.59;100.00
25759;BME280;13604;52.496;13.456;2023-08-30T04:12:02;100305.50;;;12.60;100.00
25759;BME280;13604;52.496;13.456;2023-08-30T04:14:29;100300.97;;;12.55;100.00
25759;BME280;13604;52.496;13.456;2023-08-30T04:16:55;100312.47;;;12.61;100.00
25759;BME280;13604;52.496;13.456;2023-08-30T04:19:20;100315.31;;;12.69;100.00
25759;BME280;13604;52.496;13.456;2023-08-30T04:21:45;100307.47;;;12.69;100.00
25759;BME280;13604;52.496;13.456;2023-08-30T04:24:11;100294.13;;;12.60;100.00
25759;BME280;13604;52.496;13.456;2023-08-30T04:26:36;100314.44;;;12.68;100.00
25759;BME280;13604;52.496;13.456;2023-08-30T04:29:01;100311.75;;;12.65;100.00
25759;BME280;13604;52.496;13.456;2023-08-30T04:31:28;100317.88;;;12.67;100.00
25759;BME280;13604;52.496;13.456;2023-08-30T04:33:53;100326.97;;;12.80;100.00
25759;BME280;13604;52.496;13.456;2023-08-30T04:36:20;100322.53;;;12.78;100.00
25759;BME280;13604;52.496;13.456;2023-08-30T04:38:45;100333.41;;;12.92;100.00
25759;BME280;13604;52.496;13.456;2023-08-30T04:41:10;100338.94;;;13.02;100.00
25759;BME280;13604;52.496;13.456;2023-08-30T04:43:36;100339.25;;;13.13;100.00
25759;BME280;13604;52.496;13.456;2023-08-30T04:46:01;100336.94;;;13.24;100.00
25759;BME280;13604;52.496;13.456;2023-08-30T04:48:27;100343.16;;;13.28;100.00
25759;BME280;13604;52.496;13.456;2023-08-30T04:51:01;100342.44;;;13.33;100.00
25759;BME280;13604;52.496;13.456;2023-08-30T04:53:27;100331.16;;;13.34;100.00
25759;BME280;13604;52.496;13.456;2023-08-30T04:55:53;100320.88;;;13.42;100.00
25759;BME280;13604;52.496;13.456;2023-08-30T04:58:18;100340.44;;;13.56;100.00
25759;BME280;13604;52.496;13.456;2023-08-30T05:00:43;100338.78;;;13.60;100.00
25759;BME280;13604;52.496;13.456;2023-08-30T05:03:09;100343.28;;;13.64;100.00
25759;BME280;13604;52.496;13.456;2023-08-30T05:05:34;100344.16;;;13.65;100.00
25759;BME280;13604;52.496;13.456;2023-08-30T05:07:59;100354.97;;;13.77;100.00
25759;BME280;13604;52.496;13.456;2023-08-30T05:10:25;100348.84;;;13.78;100.00
25759;BME280;13604;52.496;13.456;2023-08-30T05:12:50;100345.69;;;13.90;100.00
25759;BME280;13604;52.496;13.456;2023-08-30T05:15:17;100361.84;;;14.08;100.00
25759;BME280;13604;52.496;13.456;2023-08-30T05:17:43;100356.19;;;14.26;100.00
25759;BME280;13604;52.496;13.456;2023-08-30T05:20:09;100344.16;;;14.34;100.00
25759;BME280;13604;52.496;13.456;2023-08-30T05:22:34;100355.97;;;14.55;100.00
25759;BME280;13604;52.496;13.456;2023-08-30T05:24:59;100351.78;;;14.62;100.00
25759;BME280;13604;52.496;13.456;2023-08-30T05:27:25;100350.91;;;14.61;100.00
25759;BME280;13604;52.496;13.456;2023-08-30T05:29:51;100352.59;;;14.59;100.00
25759;BME280;13604;52.496;13.456;2023-08-30T05:32:16;100348.03;;;14.52;100.00
25759;BME280;13604;52.496;13.456;2023-08-30T05:34:42;100348.59;;;14.39;100.00
25759;BME280;13604;52.496;13.456;2023-08-30T05:37:07;100329.22;;;14.32;100.00
25759;BME280;13604;52.496;13.456;2023-08-30T05:39:32;100339.00;;;14.38;100.00
25759;BME280;13604;52.496;13.456;2023-08-30T05:41:58;100321.38;;;14.32;100.00
25759;BME280;13604;52.496;13.456;2023-08-30T05:44:23;100316.13;;;14.32;100.00
25759;BME280;13604;52.496;13.456;2023-08-30T05:46:48;100317.91;;;14.33;100.00
25759;BME280;13604;52.496;13.456;2023-08-30T05:49:14;100323.19;;;14.34;100.00
25759;BME280;13604;52.496;13.456;2023-08-30T05:51:39;100334.84;;;14.49;100.00
25759;BME280;13604;52.496;13.456;2023-08-30T05:54:04;100338.44;;;14.52;100.00
25759;BME280;13604;52.496;13.456;2023-08-30T05:56:29;100329.81;;;14.58;100.00
25759;BME280;13604;52.496;13.456;2023-08-30T05:58:55;100329.13;;;14.64;100.00
25759;BME280;13604;52.496;13.456;2023-08-30T06:01:20;100339.09;;;14.80;100.00
25759;BME280;13604;52.496;13.456;2023-08-30T06:03:46;100332.31;;;14.91;100.00
25759;BME280;13604;52.496;13.456;2023-08-30T06:06:12;100320.25;;;15.00;100.00
25759;BME280;13604;52.496;13.456;2023-08-30T06:08:37;100323.88;;;15.06;100.00
25759;BME280;13604;52.496;13.456;2023-08-30T06:11:03;100305.53;;;15.05;100.00
25759;BME280;13604;52.496;13.456;2023-08-30T06:13:28;100323.97;;;15.11;100.00
25759;BME280;13604;52.496;13.456;2023-08-30T06:15:53;100323.09;;;15.11;100.00
25759;BME280;13604;52.496;13.456;2023-08-30T06:18:19;100323.28;;;15.20;100.00
25759;BME280;13604;52.496;13.456;2023-08-30T06:20:44;100309.19;;;15.15;100.00
25759;BME280;13604;52.496;13.456;2023-08-30T06:23:11;100306.78;;;15.25;100.00
25759;BME280;13604;52.496;13.456;2023-08-30T06:25:36;100319.25;;;15.39;100.00
25759;BME280;13604;52.496;13.456;2023-08-30T06:28:01;100305.28;;;15.38;100.00
25759;BME280;13604;52.496;13.456;2023-08-30T06:30:28;100307.31;;;15.55;100.00
25759;BME280;13604;52.496;13.456;2023-08-30T06:32:55;100312.78;;;15.67;100.00
25759;BME280;13604;52.496;13.456;2023-08-30T06:35:20;100303.41;;;15.80;100.00
25759;BME280;13604;52.496;13.456;2023-08-30T06:37:45;100311.56;;;15.95;100.00
25759;BME280;13604;52.496;13.456;2023-08-30T06:40:11;100318.00;;;16.16;99.64
25759;BME280;13604;52.496;13.456;2023-08-30T06:42:36;100321.53;;;16.19;97.05
25759;BME280;13604;52.496;13.456;2023-08-30T06:45:02;100314.63;;;16.25;96.19
25759;BME280;13604;52.496;13.456;2023-08-30T06:47:28;100329.69;;;16.35;96.25
25759;BME280;13604;52.496;13.456;2023-08-30T06:49:53;100318.38;;;16.41;94.85
25759;BME280;13604;52.496;13.456;2023-08-30T06:52:18;100319.34;;;16.49;94.61
25759;BME280;13604;52.496;13.456;2023-08-30T06:54:44;100307.09;;;16.51;93.85
25759;BME280;13604;52.496;13.456;2023-08-30T06:57:09;100310.75;;;16.61;94.73
25759;BME280;13604;52.496;13.456;2023-08-30T06:59:34;100306.53;;;16.72;95.10
25759;BME280;13604;52.496;13.456;2023-08-30T07:02:00;100310.25;;;16.86;93.36
25759;BME280;13604;52.496;13.456;2023-08-30T07:04:26;100300.69;;;16.93;91.55
25759;BME280;13604;52.496;13.456;2023-08-30T07:06:51;100312.38;;;17.20;91.14
25759;BME280;13604;52.496;13.456;2023-08-30T07:09:16;100310.84;;;17.37;90.54
25759;BME280;13604;52.496;13.456;2023-08-30T07:11:43;100318.78;;;17.45;89.04
25759;BME280;13604;52.496;13.456;2023-08-30T07:14:12;100310.19;;;17.61;88.83
25759;BME280;13604;52.496;13.456;2023-08-30T07:16:39;100315.63;;;17.80;88.14
25759;BME280;13604;52.496;13.456;2023-08-30T07:19:04;100308.72;;;17.88;85.40
25759;BME280;13604;52.496;13.456;2023-08-30T07:21:29;100307.94;;;18.00;85.00
25759;BME280;13604;52.496;13.456;2023-08-30T07:23:55;100303.66;;;18.14;85.06
25759;BME280;13604;52.496;13.456;2023-08-30T07:26:20;100295.78;;;18.17;84.14
25759;BME280;13604;52.496;13.456;2023-08-30T07:28:46;100314.34;;;18.36;81.66
25759;BME280;13604;52.496;13.456;2023-08-30T07:31:11;100305.59;;;18.43;80.55
25759;BME280;13604;52.496;13.456;2023-08-30T07:33:40;100310.81;;;18.32;77.90
25759;BME280;13604;52.496;13.456;2023-08-30T07:36:05;100294.06;;;18.24;78.63
25759;BME280;13604;52.496;13.456;2023-08-30T07:38:31;100314.31;;;18.34;78.65
25759;BME280;13604;52.496;13.456;2023-08-30T07:40:57;100317.84;;;18.35;78.33
25759;BME280;13604;52.496;13.456;2023-08-30T07:43:22;100316.94;;;18.33;76.73
25759;BME280;13604;52.496;13.456;2023-08-30T07:45:47;100318.75;;;18.42;77.61
25759;BME280;13604;52.496;13.456;2023-08-30T07:48:13;100324.03;;;18.45;76.50
25759;BME280;13604;52.496;13.456;2023-08-30T07:50:38;100321.44;;;18.49;76.60
25759;BME280;13604;52.496;13.456;2023-08-30T07:53:03;100315.28;;;18.46;75.98
25759;BME280;13604;52.496;13.456;2023-08-30T07:55:29;100332.00;;;18.49;75.87
25759;BME280;13604;52.496;13.456;2023-08-30T07:57:54;100321.44;;;18.48;75.79
25759;BME280;13604;52.496;13.456;2023-08-30T08:00:20;100326.63;;;18.37;74.66
25759;BME280;13604;52.496;13.456;2023-08-30T08:02:45;100316.94;;;18.31;76.22
25759;BME280;13604;52.496;13.456;2023-08-30T08:05:10;100324.84;;;18.30;74.79
25759;BME280;13604;52.496;13.456;2023-08-30T08:07:38;100323.97;;;18.29;76.05
25759;BME280;13604;52.496;13.456;2023-08-30T08:10:04;100320.47;;;18.33;76.43
25759;BME280;13604;52.496;13.456;2023-08-30T08:12:30;100328.41;;;18.38;75.90
25759;BME280;13604;52.496;13.456;2023-08-30T08:14:55;100331.91;;;18.38;75.29
25759;BME280;13604;52.496;13.456;2023-08-30T08:17:20;100317.88;;;18.39;75.13
25759;BME280;13604;52.496;13.456;2023-08-30T08:19:46;100313.44;;;18.32;74.22
25759;BME280;13604;52.496;13.456;2023-08-30T08:22:11;100323.09;;;18.35;74.20
25759;BME280;13604;52.496;13.456;2023-08-30T08:24:36;100310.81;;;18.32;73.39
25759;BME280;13604;52.496;13.456;2023-08-30T08:27:02;100316.16;;;18.46;74.92
25759;BME280;13604;52.496;13.456;2023-08-30T08:29:27;100317.16;;;18.71;74.61
25759;BME280;13604;52.496;13.456;2023-08-30T08:31:55;100326.09;;;18.93;73.39
25759;BME280;13604;52.496;13.456;2023-08-30T08:34:20;100322.66;;;19.11;72.26
25759;BME280;13604;52.496;13.456;2023-08-30T08:36:46;100319.19;;;19.37;72.97
25759;BME280;13604;52.496;13.456;2023-08-30T08:39:11;100317.50;;;19.65;71.93
25759;BME280;13604;52.496;13.456;2023-08-30T08:41:43;100305.22;;;19.92;71.84
25759;BME280;13604;52.496;13.456;2023-08-30T08:44:10;100325.44;;;20.27;67.69
25759;BME280;13604;52.496;13.456;2023-08-30T08:46:39;100318.38;;;20.43;65.28
25759;BME280;13604;52.496;13.456;2023-08-30T08:49:09;100321.03;;;20.46;64.40
25759;BME280;13604;52.496;13.456;2023-08-30T08:51:36;100317.31;;;21.06;64.62
25759;BME280;13604;52.496;13.456;2023-08-30T08:54:03;100306.50;;;21.47;62.11
25759;BME280;13604;52.496;13.456;2023-08-30T08:56:30;100310.91;;;21.52;59.90
25759;BME280;13604;52.496;13.456;2023-08-30T08:58:57;100302.84;;;21.65;58.45
25759;BME280;13604;52.496;13.456;2023-08-30T09:01:24;100299.03;;;22.00;59.27
25759;BME280;13604;52.496;13.456;2023-08-30T09:03:50;100307.44;;;22.50;59.15
25759;BME280;13604;52.496;13.456;2023-08-30T09:06:15;100298.75;;;23.12;56.38
25759;BME280;13604;52.496;13.456;2023-08-30T09:08:41;100297.78;;;23.77;53.00
25759;BME280;13604;52.496;13.456;2023-08-30T09:11:06;100296.41;;;24.07;53.70
25759;BME280;13604;52.496;13.456;2023-08-30T09:13:31;100297.81;;;23.16;52.91
25759;BME280;13604;52.496;13.456;2023-08-30T09:15:57;100295.56;;;22.81;54.25
25759;BME280;13604;52.496;13.456;2023-08-30T09:18:22;100296.59;;;22.70;56.93
25759;BME280;13604;52.496;13.456;2023-08-30T09:20:52;100298.28;;;23.46;54.56
25759;BME280;13604;52.496;13.456;2023-08-30T09:23:19;100294.84;;;24.45;51.41
25759;BME280;13604;52.496;13.456;2023-08-30T09:25:45;100285.34;;;25.19;48.29
25759;BME280;13604;52.496;13.456;2023-08-30T09:35:29;100287.53;;;29.63;nan
25759;BME280;13604;52.496;13.456;2023-08-30T09:37:54;100280.06;;;30.95;nan
25759;BME280;13604;52.496;13.456;2023-08-30T09:40:20;100285.41;;;32.23;nan
25759;BME280;13604;52.496;13.456;2023-08-30T09:42:45;100288.47;;;32.68;nan
25759;BME280;13604;52.496;13.456;2023-08-30T09:45:23;100289.94;;;31.88;nan
25759;BME280;13604;52.496;13.456;2023-08-30T09:47:49;100287.84;;;30.61;nan
25759;BME280;13604;52.496;13.456;2023-08-30T09:50:17;100290.31;;;29.84;nan
25759;BME280;13604;52.496;13.456;2023-08-30T09:52:45;100287.72;;;29.36;nan
25759;BME280;13604;52.496;13.456;2023-08-30T09:55:11;100282.09;;;29.65;nan
25759;BME280;13604;52.496;13.456;2023-08-30T09:57:37;100289.75;;;30.59;nan
25759;BME280;13604;52.496;13.456;2023-08-30T10:09:50;100267.56;;;35.98;nan
25759;BME280;13604;52.496;13.456;2023-08-30T10:12:20;100258.56;;;35.15;nan
25759;BME280;13604;52.496;13.456;2023-08-30T10:14:47;100270.78;;;33.76;nan
25759;BME280;13604;52.496;13.456;2023-08-30T10:17:12;100267.97;;;34.38;nan
25759;BME280;13604;52.496;13.456;2023-08-30T10:19:40;100261.38;;;35.14;nan
25759;BME280;13604;52.496;13.456;2023-08-30T10:22:06;100252.16;;;34.46;nan
25759;BME280;13604;52.496;13.456;2023-08-30T10:25:06;100257.94;;;32.34;nan
25759;BME280;13604;52.496;13.456;2023-08-30T10:27:35;100258.78;;;32.17;nan
25759;BME280;13604;52.496;13.456;2023-08-30T10:30:03;100245.56;;;31.41;nan
25759;BME280;13604;52.496;13.456;2023-08-30T10:32:30;100252.19;;;30.77;nan
25759;BME280;13604;52.496;13.456;2023-08-30T10:35:00;100259.47;;;29.50;nan
25759;BME280;13604;52.496;13.456;2023-08-30T10:37:27;100253.56;;;28.72;nan
25759;BME280;13604;52.496;13.456;2023-08-30T10:39:52;100252.84;;;27.91;nan
25759;BME280;13604;52.496;13.456;2023-08-30T10:42:22;100253.44;;;27.46;nan
25759;BME280;13604;52.496;13.456;2023-08-30T10:44:56;100252.59;;;26.88;nan
25759;BME280;13604;52.496;13.456;2023-08-30T10:47:29;100268.41;;;26.62;nan
25759;BME280;13604;52.496;13.456;2023-08-30T10:49:56;100266.63;;;26.63;nan
25759;BME280;13604;52.496;13.456;2023-08-30T10:52:23;100263.53;;;27.08;nan
25759;BME280;13604;52.496;13.456;2023-08-30T10:54:49;100249.81;;;27.76;nan
25759;BME280;13604;52.496;13.456;2023-08-30T10:57:24;100245.41;;;27.18;nan
25759;BME280;13604;52.496;13.456;2023-08-30T11:00:09;100257.59;;;26.98;nan
25759;BME280;13604;52.496;13.456;2023-08-30T11:02:47;100257.34;;;27.36;39.15
25759;BME280;13604;52.496;13.456;2023-08-30T11:05:13;100257.16;;;27.69;38.53
25759;BME280;13604;52.496;13.456;2023-08-30T11:07:38;100258.03;;;28.23;38.38
25759;BME280;13604;52.496;13.456;2023-08-30T11:10:06;100264.91;;;28.79;35.70
25759;BME280;13604;52.496;13.456;2023-08-30T11:12:32;100269.47;;;28.52;36.46
25759;BME280;13604;52.496;13.456;2023-08-30T11:14:58;100269.84;;;27.35;37.53
25759;BME280;13604;52.496;13.456;2023-08-30T11:17:23;100264.91;;;26.29;39.94
25759;BME280;13604;52.496;13.456;2023-08-30T11:19:57;100269.66;;;26.18;40.69
25759;BME280;13604;52.496;13.456;2023-08-30T11:22:24;100273.94;;;25.89;40.66
25759;BME280;13604;52.496;13.456;2023-08-30T11:24:49;100262.47;;;25.49;42.80
25759;BME280;13604;52.496;13.456;2023-08-30T11:27:17;100260.50;;;25.58;41.62
25759;BME280;13604;52.496;13.456;2023-08-30T11:29:42;100273.97;;;26.88;39.93
25759;BME280;13604;52.496;13.456;2023-08-30T11:32:08;100255.72;;;28.12;37.42
25759;BME280;13604;52.496;13.456;2023-08-30T11:34:33;100253.44;;;28.75;36.13
25759;BME280;13604;52.496;13.456;2023-08-30T11:36:58;100257.44;;;28.63;35.97
25759;BME280;13604;52.496;13.456;2023-08-30T11:39:27;100262.44;;;28.49;35.90
25759;BME280;13604;52.496;13.456;2023-08-30T11:41:53;100255.72;;;28.37;37.00
25759;BME280;13604;52.496;13.456;2023-08-30T11:44:19;100261.34;;;28.30;35.43
25759;BME280;13604;52.496;13.456;2023-08-30T11:46:44;100252.72;;;28.21;33.76
25759;BME280;13604;52.496;13.456;2023-08-30T11:49:10;100250.69;;;28.03;35.39
25759;BME280;13604;52.496;13.456;2023-08-30T11:51:36;100259.91;;;27.94;36.63
25759;BME280;13604;52.496;13.456;2023-08-30T11:54:01;100251.13;;;27.35;36.33
25759;BME280;13604;52.496;13.456;2023-08-30T11:56:29;100247.44;;;26.17;36.38
25759;BME280;13604;52.496;13.456;2023-08-30T11:58:54;100257.50;;;25.34;38.82
25759;BME280;13604;52.496;13.456;2023-08-30T12:01:20;100246.53;;;24.65;40.80
25759;BME280;13604;52.496;13.456;2023-08-30T12:03:45;100246.38;;;24.28;41.76
25759;BME280;13604;52.496;13.456;2023-08-30T12:06:16;100260.34;;;23.92;42.50
25759;BME280;13604;52.496;13.456;2023-08-30T12:08:41;100254.44;;;23.70;43.17
25759;BME280;13604;52.496;13.456;2023-08-30T12:11:17;100251.94;;;23.62;43.33
25759;BME280;13604;52.496;13.456;2023-08-30T12:13:43;100244.16;;;23.50;44.88
25759;BME280;13604;52.496;13.456;2023-08-30T12:16:15;100244.56;;;23.24;44.08
25759;BME280;13604;52.496;13.456;2023-08-30T12:19:11;100243.47;;;22.73;44.51
25759;BME280;13604;52.496;13.456;2023-08-30T12:21:44;100234.03;;;22.49;45.33
25759;BME280;13604;52.496;13.456;2023-08-30T12:24:10;100244.53;;;22.60;47.06
25759;BME280;13604;52.496;13.456;2023-08-30T12:26:35;100242.22;;;22.29;47.41
25759;BME280;13604;52.496;13.456;2023-08-30T12:29:03;100244.72;;;22.41;47.11
25759;BME280;13604;52.496;13.456;2023-08-30T12:31:28;100237.19;;;21.98;46.49
25759;BME280;13604;52.496;13.456;2023-08-30T12:33:54;100237.22;;;21.97;47.11
25759;BME280;13604;52.496;13.456;2023-08-30T12:36:19;100239.94;;;21.89;47.74
25759;BME280;13604;52.496;13.456;2023-08-30T12:38:45;100232.16;;;21.71;46.90
25759;BME280;13604;52.496;13.456;2023-08-30T12:41:10;100227.81;;;21.60;47.86
25759;BME280;13604;52.496;13.456;2023-08-30T12:43:35;100237.56;;;21.60;48.36
25759;BME280;13604;52.496;13.456;2023-08-30T12:46:01;100231.44;;;21.45;49.11
25759;BME280;13604;52.496;13.456;2023-08-30T12:48:26;100232.44;;;21.33;50.10
25759;BME280;13604;52.496;13.456;2023-08-30T12:50:51;100234.19;;;21.31;49.97
25759;BME280;13604;52.496;13.456;2023-08-30T12:53:17;100225.34;;;21.34;49.95